Observations for PIACENZA IT-AFB, Italy (LIMS)

LIMS 091755Z 25008KT 200V300 CAVOK 10/M01 Q1008 
LIMS 091755Z 25008KT 200V300 CAVOK 10/M01 Q1008 RMK FEW FEW240 VIS MIN 9999 WIND THR30 24006KT BLU
LIMS 091655Z 26006KT 240V300 CAVOK 09/01 Q1008  
LIMS 091655Z 26006KT 240V300 CAVOK 09/01 Q1008 RMK SKC VIS MIN 9999 WIND THR30 25005KT BLU
LIMS 091555Z 26007KT CAVOK 10/03 Q1008  
LIMS 091555Z 26007KT CAVOK 10/03 Q1008 RMK FEW FEW140 VIS MIN 9999 WIND THR30 24007KT BLU
LIMS 091455Z 14004KT 9999 FEW030 09/07 Q1008
LIMS 091455Z 14004KT 9999 FEW030 09/07 Q1008 RMK FEW VIS MIN 9999 WIND THR30 03004KT BLU
LIMS 091355Z 32003KT 9999 FEW030 09/07 Q1007
LIMS 091355Z 32003KT 9999 FEW030 09/07 Q1007 RMK FEW VIS MIN 9999 WIND THR30 31003KT BLU
LIMS 091255Z 33005KT 300V020 9999 FEW030 08/06 Q1007
LIMS 091255Z 33005KT 300V020 9999 FEW030 08/06 Q1007 RMK FEW VIS MIN 9999 WIND THR30 31006KT BLU
LIMS 091155Z 35006KT 300V030 9999 FEW020 10/06 Q1006
LIMS 091155Z 35006KT 300V030 9999 FEW020 10/06 Q1006 RMK FEW VIS MIN 9999 WIND THR30 33006KT BLU
LIMS 091055Z 24006KT 190V300 9999 FEW020 11/03 Q1006
LIMS 091055Z 24006KT 190V300 9999 FEW020 11/03 Q1006 RMK FEW VIS MIN 9999 WIND THR30 22007KT BLU
LIMS 090955Z 35003KT 9999 FEW010 05/03 Q1007
LIMS 090955Z 35003KT 9999 FEW010 05/03 Q1007 RMK FEW VIS MIN 9999 WIND THR30 34002KT BLU
LIMS 090855Z 10002KT 9999 2000NE FEW004 02/02 Q1006 
LIMS 090855Z 10002KT 9999 2000NE FEW004 02/02 Q1006 RMK FEW VIS MIN 2000NE WINDTHR30 11001KT YLO
LIMS 090755Z 30003KT 9999 FEW010 01/01 Q1007
LIMS 090755Z 30003KT 9999 FEW010 01/01 Q1007 RMK FEW VIS MIN 9999 WIND THR30 30003KT BLU
LIMS 090655Z 36002KT CAVOK 01/01 Q1006  
LIMS 090655Z 36002KT CAVOK 01/01 Q1006 RMK SKC VIS MIN 9999 WIND THR30 33002KT BLU
LIMS 090555Z VRB01KT CAVOK 02/02 Q1007  
LIMS 090555Z VRB01KT CAVOK 02/02 Q1007 RMK SKC VIS MIN 9999 WIND THR30 00000KT BLU